Time;durP1;ratioP1;P1;durP2;ratioP2;P2;SDS_P1;SDS_P2;PMS_P1;PMS_P2;Temp;Humidity;BMP_temperature;BMP_pressure;BME280_temperature;BME280_humidity;BME280_pressure;Samples;Min_cycle;Max_cycle;Signal;HPM_P1;HPM_P2
2022/03/06 00:08:38;;;;;;;16.65;7.47;;;1.20;99.90;;;;;;6632341;89;20875;-80
2022/03/06 00:18:38;;;;;;;18.73;7.95;;;1.00;99.90;;;;;;6628674;89;20194;-80
2022/03/06 00:28:39;;;;;;;20.95;8.20;;;1.10;99.90;;;;;;6631499;89;20222;-80
2022/03/06 00:38:40;;;;;;;16.70;7.55;;;0.80;99.90;;;;;;6626176;89;20608;-81
2022/03/06 00:48:41;;;;;;;21.58;7.28;;;0.60;99.90;;;;;;6627834;89;20210;-79
2022/03/06 00:58:41;;;;;;;15.52;7.75;;;0.40;99.90;;;;;;6629034;89;20642;-80
2022/03/06 01:08:42;;;;;;;19.48;7.97;;;0.10;99.90;;;;;;6630940;89;20197;-79
2022/03/06 01:18:43;;;;;;;21.10;8.35;;;0.00;99.90;;;;;;6631171;89;20206;-79
2022/03/06 01:28:43;;;;;;;18.33;7.90;;;-0.10;99.90;;;;;;6631198;89;20218;-79
2022/03/06 01:38:44;;;;;;;18.87;8.32;;;-0.10;99.90;;;;;;6632181;89;20197;-80
2022/03/06 01:48:45;;;;;;;19.25;8.18;;;-0.20;99.90;;;;;;6632942;89;20802;-80
2022/03/06 01:58:46;;;;;;;17.12;7.72;;;-0.10;99.90;;;;;;6628806;89;20600;-79
2022/03/06 02:08:47;;;;;;;18.33;8.00;;;-0.30;99.90;;;;;;6632098;89;20198;-79
2022/03/06 02:18:47;;;;;;;16.65;7.07;;;-0.30;99.90;;;;;;6630797;89;20224;-79
2022/03/06 02:28:48;;;;;;;17.10;7.28;;;-0.50;99.90;;;;;;6629345;89;20335;-80
2022/03/06 02:38:50;;;;;;;17.87;7.60;;;-0.80;99.90;;;;;;6628735;89;20224;-79
2022/03/06 02:48:50;;;;;;;18.00;7.22;;;-0.90;99.90;;;;;;6629028;89;20185;-79
2022/03/06 02:58:51;;;;;;;17.10;6.97;;;-0.80;99.90;;;;;;6629724;89;20215;-79
2022/03/06 03:08:51;;;;;;;16.05;7.20;;;-0.90;99.90;;;;;;6629376;89;20197;-79
2022/03/06 03:18:52;;;;;;;16.50;6.82;;;-1.00;99.90;;;;;;6634156;89;20188;-79
2022/03/06 03:28:53;;;;;;;15.73;6.55;;;-1.00;99.90;;;;;;6629360;89;20847;-79
2022/03/06 03:38:53;;;;;;;16.58;6.87;;;-0.90;99.90;;;;;;6631315;89;20201;-80
2022/03/06 03:48:54;;;;;;;17.98;7.03;;;-0.80;99.90;;;;;;6631866;89;20280;-79
2022/03/06 03:58:54;;;;;;;15.95;7.57;;;-0.50;99.90;;;;;;6631421;89;20270;-79
2022/03/06 04:08:55;;;;;;;18.00;7.32;;;-0.50;99.90;;;;;;6632457;89;20382;-80
2022/03/06 04:18:55;;;;;;;16.65;7.35;;;-0.20;99.90;;;;;;6632148;89;20209;-79
2022/03/06 04:28:56;;;;;;;16.10;7.12;;;-0.10;99.90;;;;;;6631174;89;20223;-79
2022/03/06 04:38:56;;;;;;;17.90;7.93;;;-0.30;99.90;;;;;;6631062;89;20188;-79
2022/03/06 04:48:57;;;;;;;17.12;7.53;;;-0.30;99.90;;;;;;6630948;89;20214;-79
2022/03/06 04:58:58;;;;;;;17.20;7.57;;;-0.40;99.90;;;;;;6630459;89;20289;-79
2022/03/06 05:08:58;;;;;;;19.08;7.60;;;-0.60;99.90;;;;;;6631830;89;20225;-79
2022/03/06 05:18:59;;;;;;;15.95;7.07;;;-0.50;99.90;;;;;;6633482;89;20255;-79
2022/03/06 05:29:00;;;;;;;18.05;6.87;;;-0.40;99.90;;;;;;6634508;89;20672;-79
2022/03/06 05:39:01;;;;;;;19.17;7.55;;;-0.50;99.90;;;;;;6634516;89;20244;-79
2022/03/06 05:49:01;;;;;;;15.73;6.80;;;-0.50;99.90;;;;;;6633769;89;20813;-79
2022/03/06 05:59:03;;;;;;;17.73;7.30;;;-0.60;99.90;;;;;;6633120;89;20788;-80
2022/03/06 06:09:04;;;;;;;14.87;6.87;;;-0.70;99.90;;;;;;6638873;88;20399;-80
2022/03/06 06:19:04;;;;;;;17.42;7.62;;;-0.60;99.90;;;;;;6646014;88;20734;-80
2022/03/06 06:29:05;;;;;;;14.60;6.68;;;-0.70;99.90;;;;;;6646681;88;20195;-82
2022/03/06 06:39:09;;;;;;;15.88;7.40;;;-0.40;99.90;;;;;;6646867;88;20528;-80
2022/03/06 06:49:10;;;;;;;17.10;7.75;;;-0.50;99.90;;;;;;6646707;88;20261;-79
2022/03/06 06:59:13;;;;;;;19.42;7.53;;;-0.30;99.90;;;;;;6713676;88;20162;-80
2022/03/06 07:09:14;;;;;;;17.75;7.62;;;-0.20;99.90;;;;;;6713374;88;20206;-80
2022/03/06 07:19:14;;;;;;;16.90;7.22;;;0.10;99.90;;;;;;6696235;89;20281;-80
2022/03/06 07:29:15;;;;;;;17.67;7.37;;;0.10;99.90;;;;;;6696202;88;20180;-80
2022/03/06 07:39:15;;;;;;;17.55;7.85;;;0.50;99.90;;;;;;6679612;89;20179;-80
2022/03/06 07:49:16;;;;;;;18.45;7.75;;;0.70;99.90;;;;;;6625127;88;20188;-80
2022/03/06 07:59:16;;;;;;;20.27;8.60;;;1.10;99.90;;;;;;6593577;89;20167;-80
2022/03/06 08:09:17;;;;;;;19.15;8.20;;;1.40;99.90;;;;;;6657641;89;20227;-80
2022/03/06 08:19:17;;;;;;;19.52;9.13;;;1.70;99.90;;;;;;6661208;89;20278;-80
2022/03/06 08:29:18;;;;;;;17.87;8.02;;;2.30;99.90;;;;;;6687318;88;20207;-81
2022/03/06 08:39:18;;;;;;;17.67;8.63;;;2.70;99.90;;;;;;6655090;88;20935;-80
2022/03/06 08:49:19;;;;;;;18.58;9.27;;;2.70;99.90;;;;;;6713553;88;20237;-84
2022/03/06 08:59:19;;;;;;;19.48;9.65;;;3.40;99.90;;;;;;6685354;88;20247;-80
2022/03/06 09:09:20;;;;;;;18.45;9.00;;;4.10;99.90;;;;;;6641235;89;20185;-80
2022/03/06 09:19:20;;;;;;;18.02;8.75;;;4.60;99.90;;;;;;6638470;89;20201;-80
2022/03/06 09:29:21;;;;;;;16.85;9.10;;;6.10;99.90;;;;;;6637606;89;20185;-80
2022/03/06 09:39:21;;;;;;;16.25;8.73;;;7.80;95.40;;;;;;6638863;89;20209;-81
2022/03/06 10:00:24;;;;;;;13.45;7.37;;;10.10;89.70;;;;;;6648162;89;20597;-81
2022/03/06 10:10:37;;;;;;;13.40;7.72;;;11.40;83.30;;;;;;6648152;88;20258;-80
2022/03/06 10:20:38;;;;;;;16.23;9.15;;;12.70;77.70;;;;;;6645096;88;20537;-80
2022/03/06 10:30:42;;;;;;;16.30;10.20;;;12.70;74.70;;;;;;6643167;89;20205;-80
2022/03/06 10:40:43;;;;;;;15.93;9.45;;;13.20;71.10;;;;;;6649257;88;20221;-81
2022/03/06 10:50:44;;;;;;;14.60;8.67;;;13.30;70.70;;;;;;6644593;89;20217;-81
2022/03/06 11:00:46;;;;;;;15.55;9.20;;;13.60;68.70;;;;;;6645632;89;20208;-80
2022/03/06 11:10:46;;;;;;;15.18;9.10;;;14.30;67.60;;;;;;6646067;89;20202;-80
2022/03/06 11:20:48;;;;;;;15.57;8.50;;;13.40;65.30;;;;;;6648336;88;20188;-80
2022/03/06 11:30:48;;;;;;;13.10;7.65;;;12.20;65.90;;;;;;6648209;89;20700;-78
2022/03/06 11:40:54;;;;;;;13.55;7.55;;;10.80;66.20;;;;;;6648855;88;20690;-82
2022/03/06 11:51:12;;;;;;;13.15;7.68;;;10.20;66.40;;;;;;6647677;89;20208;-80
2022/03/06 12:01:25;;;;;;;14.95;7.97;;;9.90;66.70;;;;;;6647212;89;20239;-81
2022/03/06 12:11:26;;;;;;;13.20;7.87;;;10.30;67.60;;;;;;6649143;89;20716;-80
2022/03/06 12:21:36;;;;;;;15.02;8.68;;;11.20;68.40;;;;;;6665177;89;20208;-82
2022/03/06 12:31:37;;;;;;;15.00;8.40;;;12.10;64.90;;;;;;6668801;89;20223;-80
2022/03/06 12:41:44;;;;;;;15.88;9.07;;;11.90;66.30;;;;;;6670111;88;20217;-80
2022/03/06 12:51:47;;;;;;;15.05;9.02;;;11.70;66.60;;;;;;6670057;89;20203;-80
2022/03/06 13:01:49;;;;;;;17.65;9.68;;;12.00;64.90;;;;;;6669883;88;20234;-79
2022/03/06 13:11:51;;;;;;;16.73;9.60;;;14.50;62.20;;;;;;6664012;89;20711;-79
2022/03/06 13:21:52;;;;;;;16.65;10.13;;;15.20;60.10;;;;;;6650753;89;20185;-80
2022/03/06 13:31:52;;;;;;;17.70;10.35;;;15.30;60.80;;;;;;6650306;89;20740;-81
2022/03/06 13:41:55;;;;;;;19.20;11.07;;;16.70;58.00;;;;;;6651020;89;20268;-79
2022/03/06 13:52:07;;;;;;;17.00;9.73;;;12.30;62.00;;;;;;6652640;89;20173;-80
2022/03/06 14:02:10;;;;;;;15.68;9.15;;;11.10;63.80;;;;;;6653091;89;20336;-80
2022/03/06 14:12:16;;;;;;;19.70;10.48;;;13.60;60.60;;;;;;6651699;89;20222;-80
2022/03/06 14:22:16;;;;;;;16.00;9.60;;;15.10;60.30;;;;;;6653968;89;20263;-78
2022/03/06 14:32:17;;;;;;;14.43;8.60;;;11.80;63.00;;;;;;6651045;89;20242;-80
2022/03/06 14:42:17;;;;;;;12.55;7.40;;;10.90;63.20;;;;;;6651958;88;20505;-82
2022/03/06 14:52:18;;;;;;;10.55;6.37;;;11.80;62.40;;;;;;6652721;88;20204;-78
2022/03/06 15:06:54;;;;;;;10.07;5.80;;;11.70;60.10;;;;;;6813647;86;20231;-80
2022/03/06 15:16:55;;;;;;;9.90;6.40;;;11.20;60.30;;;;;;6803259;87;20312;-80
2022/03/06 15:26:55;;;;;;;11.23;6.15;;;10.90;60.50;;;;;;6807110;87;20193;-80
2022/03/06 15:36:56;;;;;;;11.75;6.75;;;9.80;65.40;;;;;;6806035;87;20746;-80
2022/03/06 15:46:56;;;;;;;13.32;7.57;;;8.80;68.50;;;;;;6797040;76;20203;-73
2022/03/06 15:56:57;;;;;;;13.30;8.20;;;8.90;68.20;;;;;;6742420;88;20207;-75
2022/03/06 16:06:57;;;;;;;14.48;7.65;;;8.80;66.70;;;;;;6714617;88;20185;-74
2022/03/06 16:16:58;;;;;;;11.88;7.95;;;8.90;66.40;;;;;;6706364;88;20189;-73
2022/03/06 16:26:58;;;;;;;13.50;8.02;;;8.50;67.60;;;;;;6692428;88;20191;-74
2022/03/06 16:36:59;;;;;;;13.65;7.82;;;8.20;68.30;;;;;;6701184;88;20686;-74
2022/03/06 16:46:59;;;;;;;12.90;7.55;;;7.50;69.90;;;;;;6702246;88;20732;-73
2022/03/06 16:57:00;;;;;;;16.65;8.50;;;7.10;72.20;;;;;;6697482;88;20948;-75
2022/03/06 17:07:03;;;;;;;11.32;6.93;;;6.50;73.70;;;;;;6700944;88;20206;-74
2022/03/06 17:17:03;;;;;;;13.93;7.37;;;6.10;74.90;;;;;;6708573;88;20630;-74
2022/03/06 17:27:04;;;;;;;12.77;7.43;;;5.60;75.80;;;;;;6706187;88;20325;-74
2022/03/06 17:37:05;;;;;;;13.32;7.10;;;5.30;76.40;;;;;;6705633;88;20217;-74
2022/03/06 17:47:05;;;;;;;13.27;6.97;;;5.10;77.50;;;;;;6700327;88;20704;-75
2022/03/06 17:57:06;;;;;;;12.77;7.03;;;4.80;79.00;;;;;;6691614;88;20258;-75
2022/03/06 18:07:06;;;;;;;15.57;8.35;;;4.50;80.10;;;;;;6697771;88;20260;-74
2022/03/06 18:17:07;;;;;;;12.25;7.15;;;4.30;80.70;;;;;;6699928;88;20239;-75
2022/03/06 18:27:07;;;;;;;12.45;6.53;;;3.90;80.90;;;;;;6698877;88;20202;-75
2022/03/06 18:37:08;;;;;;;11.10;6.53;;;3.70;81.90;;;;;;6699566;88;20220;-75
2022/03/06 18:47:09;;;;;;;12.43;6.35;;;3.80;81.30;;;;;;6697649;88;20283;-75
2022/03/06 18:57:10;;;;;;;11.43;6.28;;;3.60;81.90;;;;;;6696727;88;20170;-74
2022/03/06 19:07:16;;;;;;;10.25;6.47;;;3.30;83.10;;;;;;6700485;88;20243;-75
2022/03/06 19:17:19;;;;;;;11.80;6.40;;;3.10;84.30;;;;;;6704695;88;20178;-75
2022/03/06 19:27:20;;;;;;;12.48;6.65;;;2.90;86.00;;;;;;6700960;88;20300;-75
2022/03/06 19:37:20;;;;;;;12.88;6.75;;;3.00;87.30;;;;;;6709401;88;21093;-75
2022/03/06 19:47:21;;;;;;;11.35;6.05;;;2.80;88.30;;;;;;6713750;88;20989;-74
2022/03/06 19:57:23;;;;;;;13.02;6.40;;;2.70;90.10;;;;;;6701454;88;20825;-74
2022/03/06 20:07:25;;;;;;;10.82;5.68;;;2.50;90.60;;;;;;6701663;88;20194;-75
2022/03/06 20:17:26;;;;;;;13.00;6.25;;;2.30;91.40;;;;;;6707692;88;20203;-74
2022/03/06 20:27:26;;;;;;;10.43;5.78;;;2.20;92.30;;;;;;6704869;88;20196;-74
2022/03/06 20:37:27;;;;;;;12.80;6.43;;;2.10;93.30;;;;;;6694909;88;20191;-74
2022/03/06 20:47:27;;;;;;;11.88;6.57;;;1.80;95.20;;;;;;6697305;88;20217;-74
2022/03/06 20:57:28;;;;;;;11.25;6.07;;;1.60;97.00;;;;;;6695235;88;20509;-75
2022/03/06 21:07:29;;;;;;;11.95;5.40;;;1.60;98.40;;;;;;6700454;88;20189;-75
2022/03/06 21:17:30;;;;;;;12.13;5.78;;;1.50;98.40;;;;;;6700889;88;20214;-75
2022/03/06 21:27:30;;;;;;;11.52;5.93;;;1.30;99.60;;;;;;6700003;88;20182;-75
2022/03/06 21:37:31;;;;;;;11.82;6.10;;;1.10;99.90;;;;;;6699083;88;20699;-75
2022/03/06 21:47:32;;;;;;;12.50;6.05;;;1.00;99.90;;;;;;6696490;88;20860;-75
2022/03/06 21:57:53;;;;;;;12.43;6.40;;;0.90;99.90;;;;;;6736778;77;20213;-79
2022/03/06 22:07:54;;;;;;;12.15;6.25;;;0.90;99.90;;;;;;6715986;88;20189;-80
2022/03/06 22:17:55;;;;;;;14.35;6.65;;;0.70;99.90;;;;;;6716129;88;20217;-81
2022/03/06 22:27:55;;;;;;;11.73;6.70;;;0.50;99.90;;;;;;6720201;88;20258;-77
2022/03/06 22:37:56;;;;;;;12.52;6.22;;;0.40;99.90;;;;;;6721005;88;20219;-80
2022/03/06 22:47:56;;;;;;;13.27;6.80;;;0.30;99.90;;;;;;6891428;77;20173;-73
2022/03/06 22:57:58;;;;;;;12.07;6.87;;;0.20;99.90;;;;;;6743584;86;20623;-73
2022/03/06 23:07:58;;;;;;;13.50;6.85;;;0.10;99.90;;;;;;6729837;88;20617;-73
2022/03/06 23:17:59;;;;;;;11.68;6.30;;;-0.10;99.90;;;;;;6726361;88;20186;-73
2022/03/06 23:28:00;;;;;;;12.70;6.87;;;-0.20;99.90;;;;;;6734498;88;20273;-73
2022/03/06 23:38:00;;;;;;;11.68;5.85;;;-0.30;99.90;;;;;;6729523;88;20225;-73
2022/03/06 23:48:01;;;;;;;11.35;5.25;;;-0.40;99.90;;;;;;6737498;88;20706;-73
2022/03/06 23:58:01;;;;;;;7.53;3.80;;;-0.20;99.90;;;;;;6738471;88;20193;-73
